sensor_id;sensor_type;location;lat;lon;timestamp;P1;durP1;ratioP1;P2;durP2;ratioP2
4565;SDS011;2295;51.050;14.608;2023-09-12T00:02:27;20.33;;;15.10;;
4565;SDS011;2295;51.050;14.608;2023-09-12T00:04:55;18.40;;;14.07;;
4565;SDS011;2295;51.050;14.608;2023-09-12T00:07:24;18.07;;;13.70;;
4565;SDS011;2295;51.050;14.608;2023-09-12T00:09:52;17.13;;;14.10;;
4565;SDS011;2295;51.050;14.608;2023-09-12T00:12:21;18.73;;;14.13;;
4565;SDS011;2295;51.050;14.608;2023-09-12T00:14:51;19.60;;;14.00;;
4565;SDS011;2295;51.050;14.608;2023-09-12T00:17:21;17.80;;;14.20;;
4565;SDS011;2295;51.050;14.608;2023-09-12T00:19:49;16.20;;;14.27;;
4565;SDS011;2295;51.050;14.608;2023-09-12T00:22:18;22.80;;;13.10;;
4565;SDS011;2295;51.050;14.608;2023-09-12T00:24:46;17.20;;;13.67;;
4565;SDS011;2295;51.050;14.608;2023-09-12T00:27:14;22.40;;;13.50;;
4565;SDS011;2295;51.050;14.608;2023-09-12T00:29:43;20.03;;;14.57;;
4565;SDS011;2295;51.050;14.608;2023-09-12T00:32:11;18.70;;;13.90;;
4565;SDS011;2295;51.050;14.608;2023-09-12T00:34:41;20.43;;;14.57;;
4565;SDS011;2295;51.050;14.608;2023-09-12T00:37:09;18.30;;;14.17;;
4565;SDS011;2295;51.050;14.608;2023-09-12T00:39:38;18.20;;;13.97;;
4565;SDS011;2295;51.050;14.608;2023-09-12T00:42:06;20.37;;;14.10;;
4565;SDS011;2295;51.050;14.608;2023-09-12T00:44:35;18.93;;;15.70;;
4565;SDS011;2295;51.050;14.608;2023-09-12T00:47:03;20.30;;;13.40;;
4565;SDS011;2295;51.050;14.608;2023-09-12T00:49:32;20.87;;;14.50;;
4565;SDS011;2295;51.050;14.608;2023-09-12T00:52:03;20.47;;;15.60;;
4565;SDS011;2295;51.050;14.608;2023-09-12T00:54:31;19.93;;;14.47;;
4565;SDS011;2295;51.050;14.608;2023-09-12T00:57:03;18.83;;;14.13;;
4565;SDS011;2295;51.050;14.608;2023-09-12T00:59:31;19.63;;;13.13;;
4565;SDS011;2295;51.050;14.608;2023-09-12T01:02:00;18.73;;;14.20;;
4565;SDS011;2295;51.050;14.608;2023-09-12T01:04:30;16.30;;;14.27;;
4565;SDS011;2295;51.050;14.608;2023-09-12T01:07:03;24.50;;;14.37;;
4565;SDS011;2295;51.050;14.608;2023-09-12T01:09:32;18.13;;;14.97;;
4565;SDS011;2295;51.050;14.608;2023-09-12T01:12:01;20.00;;;14.27;;
4565;SDS011;2295;51.050;14.608;2023-09-12T01:14:30;17.40;;;14.20;;
4565;SDS011;2295;51.050;14.608;2023-09-12T01:16:58;18.03;;;14.10;;
4565;SDS011;2295;51.050;14.608;2023-09-12T01:19:29;19.70;;;14.50;;
4565;SDS011;2295;51.050;14.608;2023-09-12T01:22:11;20.33;;;14.47;;
4565;SDS011;2295;51.050;14.608;2023-09-12T01:25:04;20.23;;;14.00;;
4565;SDS011;2295;51.050;14.608;2023-09-12T01:27:45;19.13;;;14.37;;
4565;SDS011;2295;51.050;14.608;2023-09-12T01:30:15;21.60;;;14.40;;
4565;SDS011;2295;51.050;14.608;2023-09-12T01:32:45;20.60;;;14.23;;
4565;SDS011;2295;51.050;14.608;2023-09-12T01:35:15;19.57;;;14.70;;
4565;SDS011;2295;51.050;14.608;2023-09-12T01:37:43;20.80;;;14.80;;
4565;SDS011;2295;51.050;14.608;2023-09-12T01:40:11;27.03;;;14.50;;
4565;SDS011;2295;51.050;14.608;2023-09-12T01:42:42;35.53;;;15.07;;
4565;SDS011;2295;51.050;14.608;2023-09-12T01:45:13;19.37;;;15.00;;
4565;SDS011;2295;51.050;14.608;2023-09-12T01:47:48;23.67;;;16.00;;
4565;SDS011;2295;51.050;14.608;2023-09-12T01:50:18;20.17;;;14.30;;
4565;SDS011;2295;51.050;14.608;2023-09-12T01:52:48;22.50;;;14.40;;
4565;SDS011;2295;51.050;14.608;2023-09-12T01:55:17;19.10;;;14.70;;
4565;SDS011;2295;51.050;14.608;2023-09-12T01:57:48;18.63;;;14.13;;
4565;SDS011;2295;51.050;14.608;2023-09-12T02:00:17;19.07;;;14.23;;
4565;SDS011;2295;51.050;14.608;2023-09-12T02:02:47;19.23;;;14.17;;
4565;SDS011;2295;51.050;14.608;2023-09-12T02:05:16;19.27;;;14.40;;
4565;SDS011;2295;51.050;14.608;2023-09-12T02:07:46;21.83;;;14.03;;
4565;SDS011;2295;51.050;14.608;2023-09-12T02:10:15;18.40;;;14.47;;
4565;SDS011;2295;51.050;14.608;2023-09-12T02:12:43;18.10;;;13.57;;
4565;SDS011;2295;51.050;14.608;2023-09-12T02:15:13;22.90;;;15.70;;
4565;SDS011;2295;51.050;14.608;2023-09-12T02:17:42;19.80;;;14.93;;
4565;SDS011;2295;51.050;14.608;2023-09-12T02:20:10;16.07;;;14.13;;
4565;SDS011;2295;51.050;14.608;2023-09-12T02:22:39;19.90;;;14.73;;
4565;SDS011;2295;51.050;14.608;2023-09-12T02:25:07;22.90;;;14.47;;
4565;SDS011;2295;51.050;14.608;2023-09-12T02:27:36;19.57;;;14.87;;
4565;SDS011;2295;51.050;14.608;2023-09-12T02:30:05;21.07;;;14.90;;
4565;SDS011;2295;51.050;14.608;2023-09-12T02:32:36;18.23;;;13.70;;
4565;SDS011;2295;51.050;14.608;2023-09-12T02:35:04;21.17;;;15.37;;
4565;SDS011;2295;51.050;14.608;2023-09-12T02:37:33;22.70;;;15.00;;
4565;SDS011;2295;51.050;14.608;2023-09-12T02:40:01;20.97;;;15.40;;
4565;SDS011;2295;51.050;14.608;2023-09-12T02:42:31;21.03;;;15.00;;
4565;SDS011;2295;51.050;14.608;2023-09-12T02:45:00;17.33;;;14.07;;
4565;SDS011;2295;51.050;14.608;2023-09-12T02:47:28;19.37;;;14.63;;
4565;SDS011;2295;51.050;14.608;2023-09-12T02:49:58;21.20;;;14.30;;
4565;SDS011;2295;51.050;14.608;2023-09-12T02:52:27;20.10;;;14.17;;
4565;SDS011;2295;51.050;14.608;2023-09-12T02:54:55;22.80;;;15.23;;
4565;SDS011;2295;51.050;14.608;2023-09-12T02:57:24;23.63;;;15.23;;
4565;SDS011;2295;51.050;14.608;2023-09-12T02:59:53;24.00;;;15.80;;
4565;SDS011;2295;51.050;14.608;2023-09-12T03:02:21;20.13;;;14.70;;
4565;SDS011;2295;51.050;14.608;2023-09-12T03:04:50;20.50;;;15.70;;
4565;SDS011;2295;51.050;14.608;2023-09-12T03:07:19;20.20;;;15.33;;
4565;SDS011;2295;51.050;14.608;2023-09-12T03:09:48;22.07;;;14.70;;
4565;SDS011;2295;51.050;14.608;2023-09-12T03:12:17;19.93;;;15.90;;
4565;SDS011;2295;51.050;14.608;2023-09-12T03:14:45;21.50;;;15.70;;
4565;SDS011;2295;51.050;14.608;2023-09-12T03:17:13;23.70;;;17.23;;
4565;SDS011;2295;51.050;14.608;2023-09-12T03:19:42;21.60;;;15.50;;
4565;SDS011;2295;51.050;14.608;2023-09-12T03:22:10;22.20;;;15.90;;
4565;SDS011;2295;51.050;14.608;2023-09-12T03:24:40;21.80;;;16.80;;
4565;SDS011;2295;51.050;14.608;2023-09-12T03:27:09;24.37;;;16.40;;
4565;SDS011;2295;51.050;14.608;2023-09-12T03:29:38;39.87;;;20.93;;
4565;SDS011;2295;51.050;14.608;2023-09-12T03:32:06;46.43;;;23.43;;
4565;SDS011;2295;51.050;14.608;2023-09-12T03:34:35;34.60;;;20.53;;
4565;SDS011;2295;51.050;14.608;2023-09-12T03:37:03;31.90;;;18.60;;
4565;SDS011;2295;51.050;14.608;2023-09-12T03:39:32;25.43;;;17.53;;
4565;SDS011;2295;51.050;14.608;2023-09-12T03:42:02;24.63;;;17.97;;
4565;SDS011;2295;51.050;14.608;2023-09-12T03:44:32;22.30;;;16.33;;
4565;SDS011;2295;51.050;14.608;2023-09-12T03:47:01;20.53;;;15.60;;
4565;SDS011;2295;51.050;14.608;2023-09-12T03:49:29;28.73;;;17.30;;
4565;SDS011;2295;51.050;14.608;2023-09-12T03:51:57;20.83;;;16.00;;
4565;SDS011;2295;51.050;14.608;2023-09-12T03:54:26;24.43;;;17.57;;
4565;SDS011;2295;51.050;14.608;2023-09-12T03:56:54;30.53;;;20.80;;
4565;SDS011;2295;51.050;14.608;2023-09-12T03:59:24;23.57;;;17.33;;
4565;SDS011;2295;51.050;14.608;2023-09-12T04:01:52;22.80;;;17.20;;
4565;SDS011;2295;51.050;14.608;2023-09-12T04:04:21;23.13;;;16.80;;
4565;SDS011;2295;51.050;14.608;2023-09-12T04:06:50;19.63;;;14.70;;
4565;SDS011;2295;51.050;14.608;2023-09-12T04:09:21;23.53;;;15.50;;
4565;SDS011;2295;51.050;14.608;2023-09-12T04:11:50;23.50;;;16.73;;
4565;SDS011;2295;51.050;14.608;2023-09-12T04:14:20;36.70;;;17.47;;
4565;SDS011;2295;51.050;14.608;2023-09-12T04:16:50;26.40;;;18.50;;
4565;SDS011;2295;51.050;14.608;2023-09-12T04:19:19;25.97;;;18.23;;
4565;SDS011;2295;51.050;14.608;2023-09-12T04:21:47;25.70;;;19.40;;
4565;SDS011;2295;51.050;14.608;2023-09-12T04:24:16;25.80;;;17.67;;
4565;SDS011;2295;51.050;14.608;2023-09-12T04:26:44;23.63;;;16.23;;
4565;SDS011;2295;51.050;14.608;2023-09-12T04:29:12;23.63;;;15.97;;
4565;SDS011;2295;51.050;14.608;2023-09-12T04:31:41;21.20;;;15.83;;
4565;SDS011;2295;51.050;14.608;2023-09-12T04:34:11;21.30;;;15.03;;
4565;SDS011;2295;51.050;14.608;2023-09-12T04:36:39;23.83;;;15.13;;
4565;SDS011;2295;51.050;14.608;2023-09-12T04:39:08;21.30;;;15.13;;
4565;SDS011;2295;51.050;14.608;2023-09-12T04:41:36;19.75;;;15.48;;
4565;SDS011;2295;51.050;14.608;2023-09-12T04:44:05;19.93;;;15.53;;
4565;SDS011;2295;51.050;14.608;2023-09-12T04:46:33;29.50;;;15.60;;
4565;SDS011;2295;51.050;14.608;2023-09-12T04:49:02;23.77;;;15.23;;
4565;SDS011;2295;51.050;14.608;2023-09-12T04:51:32;23.63;;;15.73;;
4565;SDS011;2295;51.050;14.608;2023-09-12T04:54:01;19.43;;;15.23;;
4565;SDS011;2295;51.050;14.608;2023-09-12T04:56:29;21.47;;;16.10;;
4565;SDS011;2295;51.050;14.608;2023-09-12T04:58:58;20.13;;;14.80;;
4565;SDS011;2295;51.050;14.608;2023-09-12T05:01:26;22.80;;;16.57;;
4565;SDS011;2295;51.050;14.608;2023-09-12T05:03:55;24.23;;;16.20;;
4565;SDS011;2295;51.050;14.608;2023-09-12T05:06:23;22.80;;;15.20;;
4565;SDS011;2295;51.050;14.608;2023-09-12T05:08:53;20.43;;;16.03;;
4565;SDS011;2295;51.050;14.608;2023-09-12T05:11:21;26.83;;;16.07;;
4565;SDS011;2295;51.050;14.608;2023-09-12T05:13:50;23.63;;;16.70;;
4565;SDS011;2295;51.050;14.608;2023-09-12T05:16:19;27.53;;;17.10;;
4565;SDS011;2295;51.050;14.608;2023-09-12T05:18:47;21.70;;;16.20;;
4565;SDS011;2295;51.050;14.608;2023-09-12T05:21:17;20.60;;;15.30;;
4565;SDS011;2295;51.050;14.608;2023-09-12T05:23:45;22.40;;;15.50;;
4565;SDS011;2295;51.050;14.608;2023-09-12T05:26:15;24.40;;;14.97;;
4565;SDS011;2295;51.050;14.608;2023-09-12T05:28:44;19.70;;;14.47;;
4565;SDS011;2295;51.050;14.608;2023-09-12T05:31:13;19.67;;;13.80;;
4565;SDS011;2295;51.050;14.608;2023-09-12T05:33:41;18.50;;;13.70;;
4565;SDS011;2295;51.050;14.608;2023-09-12T05:36:10;16.63;;;13.33;;
4565;SDS011;2295;51.050;14.608;2023-09-12T05:38:38;22.00;;;14.00;;
4565;SDS011;2295;51.050;14.608;2023-09-12T05:41:07;21.90;;;13.90;;
4565;SDS011;2295;51.050;14.608;2023-09-12T05:43:37;18.47;;;13.00;;
4565;SDS011;2295;51.050;14.608;2023-09-12T05:46:05;16.47;;;13.13;;
4565;SDS011;2295;51.050;14.608;2023-09-12T05:48:34;23.53;;;14.00;;
4565;SDS011;2295;51.050;14.608;2023-09-12T05:51:02;23.07;;;15.03;;
4565;SDS011;2295;51.050;14.608;2023-09-12T05:53:31;28.30;;;13.17;;
4565;SDS011;2295;51.050;14.608;2023-09-12T05:55:59;22.23;;;13.70;;
4565;SDS011;2295;51.050;14.608;2023-09-12T05:58:28;20.47;;;13.10;;
4565;SDS011;2295;51.050;14.608;2023-09-12T06:00:58;16.77;;;13.67;;
4565;SDS011;2295;51.050;14.608;2023-09-12T06:03:27;18.00;;;12.50;;
4565;SDS011;2295;51.050;14.608;2023-09-12T06:05:56;33.10;;;14.40;;
4565;SDS011;2295;51.050;14.608;2023-09-12T06:08:25;21.43;;;14.60;;
4565;SDS011;2295;51.050;14.608;2023-09-12T06:10:53;14.10;;;11.23;;
4565;SDS011;2295;51.050;14.608;2023-09-12T06:13:21;12.23;;;10.30;;
4565;SDS011;2295;51.050;14.608;2023-09-12T06:15:51;16.03;;;10.43;;
4565;SDS011;2295;51.050;14.608;2023-09-12T06:18:21;14.50;;;10.07;;
4565;SDS011;2295;51.050;14.608;2023-09-12T06:20:50;13.23;;;9.40;;
4565;SDS011;2295;51.050;14.608;2023-09-12T06:23:19;12.53;;;8.87;;
4565;SDS011;2295;51.050;14.608;2023-09-12T06:25:48;12.77;;;9.23;;
4565;SDS011;2295;51.050;14.608;2023-09-12T06:28:24;19.20;;;9.63;;
4565;SDS011;2295;51.050;14.608;2023-09-12T06:30:53;9.90;;;9.00;;
4565;SDS011;2295;51.050;14.608;2023-09-12T06:33:24;13.27;;;9.20;;
4565;SDS011;2295;51.050;14.608;2023-09-12T06:35:53;14.27;;;9.87;;
4565;SDS011;2295;51.050;14.608;2023-09-12T06:38:22;11.77;;;8.87;;
4565;SDS011;2295;51.050;14.608;2023-09-12T06:40:50;9.50;;;8.57;;
4565;SDS011;2295;51.050;14.608;2023-09-12T06:43:19;11.53;;;8.27;;
4565;SDS011;2295;51.050;14.608;2023-09-12T06:45:47;10.90;;;7.77;;
4565;SDS011;2295;51.050;14.608;2023-09-12T06:48:17;10.93;;;8.90;;
4565;SDS011;2295;51.050;14.608;2023-09-12T06:50:47;9.73;;;8.73;;
4565;SDS011;2295;51.050;14.608;2023-09-12T06:53:19;13.13;;;8.67;;
4565;SDS011;2295;51.050;14.608;2023-09-12T06:55:48;10.90;;;8.53;;
4565;SDS011;2295;51.050;14.608;2023-09-12T06:58:16;9.43;;;8.40;;
4565;SDS011;2295;51.050;14.608;2023-09-12T07:00:44;8.40;;;7.60;;
4565;SDS011;2295;51.050;14.608;2023-09-12T07:03:12;7.13;;;6.57;;
4565;SDS011;2295;51.050;14.608;2023-09-12T07:05:42;8.60;;;7.43;;
4565;SDS011;2295;51.050;14.608;2023-09-12T07:08:12;8.77;;;6.90;;
4565;SDS011;2295;51.050;14.608;2023-09-12T07:10:43;12.90;;;6.80;;
4565;SDS011;2295;51.050;14.608;2023-09-12T07:13:12;6.57;;;6.10;;
4565;SDS011;2295;51.050;14.608;2023-09-12T07:15:41;9.83;;;6.33;;
4565;SDS011;2295;51.050;14.608;2023-09-12T07:18:09;7.33;;;5.63;;
4565;SDS011;2295;51.050;14.608;2023-09-12T07:20:37;6.97;;;6.30;;
4565;SDS011;2295;51.050;14.608;2023-09-12T07:23:06;7.03;;;6.27;;
4565;SDS011;2295;51.050;14.608;2023-09-12T07:25:39;6.47;;;5.70;;
4565;SDS011;2295;51.050;14.608;2023-09-12T07:28:08;5.93;;;5.43;;
4565;SDS011;2295;51.050;14.608;2023-09-12T07:30:37;8.30;;;5.50;;
4565;SDS011;2295;51.050;14.608;2023-09-12T07:33:05;6.60;;;5.63;;
4565;SDS011;2295;51.050;14.608;2023-09-12T07:35:34;8.20;;;5.53;;
4565;SDS011;2295;51.050;14.608;2023-09-12T07:38:02;6.03;;;5.40;;
4565;SDS011;2295;51.050;14.608;2023-09-12T07:40:31;5.73;;;5.43;;
4565;SDS011;2295;51.050;14.608;2023-09-12T07:43:00;6.33;;;5.73;;
4565;SDS011;2295;51.050;14.608;2023-09-12T07:45:29;8.53;;;5.93;;
4565;SDS011;2295;51.050;14.608;2023-09-12T07:47:57;7.10;;;6.40;;
4565;SDS011;2295;51.050;14.608;2023-09-12T07:50:26;6.30;;;5.90;;
4565;SDS011;2295;51.050;14.608;2023-09-12T07:52:56;6.27;;;5.87;;
4565;SDS011;2295;51.050;14.608;2023-09-12T07:55:24;6.40;;;6.00;;
4565;SDS011;2295;51.050;14.608;2023-09-12T07:57:56;7.23;;;6.30;;
4565;SDS011;2295;51.050;14.608;2023-09-12T08:00:26;8.47;;;6.83;;
4565;SDS011;2295;51.050;14.608;2023-09-12T08:02:54;6.93;;;6.23;;
4565;SDS011;2295;51.050;14.608;2023-09-12T08:05:23;7.27;;;5.93;;
4565;SDS011;2295;51.050;14.608;2023-09-12T08:07:51;13.47;;;6.00;;
4565;SDS011;2295;51.050;14.608;2023-09-12T08:10:19;7.60;;;6.77;;
4565;SDS011;2295;51.050;14.608;2023-09-12T08:12:48;6.80;;;6.30;;
4565;SDS011;2295;51.050;14.608;2023-09-12T08:15:16;7.57;;;6.47;;
4565;SDS011;2295;51.050;14.608;2023-09-12T08:17:46;6.40;;;5.80;;
4565;SDS011;2295;51.050;14.608;2023-09-12T08:20:19;5.90;;;5.50;;
4565;SDS011;2295;51.050;14.608;2023-09-12T08:22:47;5.90;;;5.40;;
4565;SDS011;2295;51.050;14.608;2023-09-12T08:25:16;7.83;;;6.00;;
4565;SDS011;2295;51.050;14.608;2023-09-12T08:27:44;9.23;;;6.03;;
4565;SDS011;2295;51.050;14.608;2023-09-12T08:30:13;7.70;;;5.90;;
4565;SDS011;2295;51.050;14.608;2023-09-12T08:32:43;8.90;;;6.10;;
4565;SDS011;2295;51.050;14.608;2023-09-12T08:35:13;6.30;;;5.80;;
4565;SDS011;2295;51.050;14.608;2023-09-12T08:37:42;6.40;;;5.90;;
4565;SDS011;2295;51.050;14.608;2023-09-12T08:40:11;6.40;;;5.90;;
4565;SDS011;2295;51.050;14.608;2023-09-12T08:42:39;6.10;;;5.50;;
4565;SDS011;2295;51.050;14.608;2023-09-12T08:45:11;5.80;;;5.40;;
4565;SDS011;2295;51.050;14.608;2023-09-12T08:47:42;5.00;;;4.60;;
4565;SDS011;2295;51.050;14.608;2023-09-12T08:50:14;5.40;;;5.03;;
4565;SDS011;2295;51.050;14.608;2023-09-12T08:52:44;6.17;;;4.60;;
4565;SDS011;2295;51.050;14.608;2023-09-12T08:55:31;4.33;;;3.93;;
4565;SDS011;2295;51.050;14.608;2023-09-12T08:58:02;12.33;;;3.93;;
4565;SDS011;2295;51.050;14.608;2023-09-12T09:00:32;4.20;;;4.00;;
4565;SDS011;2295;51.050;14.608;2023-09-12T09:03:02;4.80;;;4.40;;
4565;SDS011;2295;51.050;14.608;2023-09-12T09:05:33;7.37;;;3.50;;
4565;SDS011;2295;51.050;14.608;2023-09-12T09:08:04;21.73;;;3.47;;
4565;SDS011;2295;51.050;14.608;2023-09-12T09:10:33;3.60;;;3.40;;
4565;SDS011;2295;51.050;14.608;2023-09-12T09:13:15;4.40;;;3.50;;
4565;SDS011;2295;51.050;14.608;2023-09-12T09:15:44;5.93;;;3.23;;
4565;SDS011;2295;51.050;14.608;2023-09-12T09:18:13;3.60;;;3.30;;
4565;SDS011;2295;51.050;14.608;2023-09-12T09:20:43;4.30;;;3.17;;
4565;SDS011;2295;51.050;14.608;2023-09-12T09:23:15;7.07;;;3.70;;
4565;SDS011;2295;51.050;14.608;2023-09-12T09:25:45;4.40;;;4.00;;
4565;SDS011;2295;51.050;14.608;2023-09-12T09:28:20;4.10;;;3.53;;
4565;SDS011;2295;51.050;14.608;2023-09-12T09:30:50;8.30;;;4.00;;
4565;SDS011;2295;51.050;14.608;2023-09-12T09:33:21;4.03;;;3.50;;
4565;SDS011;2295;51.050;14.608;2023-09-12T09:35:54;4.07;;;3.20;;
4565;SDS011;2295;51.050;14.608;2023-09-12T09:38:31;4.70;;;3.60;;
4565;SDS011;2295;51.050;14.608;2023-09-12T09:41:03;3.97;;;3.37;;
4565;SDS011;2295;51.050;14.608;2023-09-12T09:43:32;3.43;;;3.07;;
4565;SDS011;2295;51.050;14.608;2023-09-12T09:46:00;3.60;;;3.50;;
4565;SDS011;2295;51.050;14.608;2023-09-12T09:48:30;3.93;;;2.80;;
4565;SDS011;2295;51.050;14.608;2023-09-12T09:51:03;3.87;;;3.40;;
4565;SDS011;2295;51.050;14.608;2023-09-12T09:53:31;4.30;;;3.03;;
4565;SDS011;2295;51.050;14.608;2023-09-12T09:56:07;9.30;;;3.50;;
4565;SDS011;2295;51.050;14.608;2023-09-12T09:58:38;4.50;;;3.30;;
4565;SDS011;2295;51.050;14.608;2023-09-12T10:01:15;3.30;;;3.03;;
4565;SDS011;2295;51.050;14.608;2023-09-12T10:03:48;3.87;;;3.57;;
4565;SDS011;2295;51.050;14.608;2023-09-12T10:06:19;3.60;;;3.30;;
4565;SDS011;2295;51.050;14.608;2023-09-12T10:08:50;6.40;;;3.67;;
4565;SDS011;2295;51.050;14.608;2023-09-12T10:11:20;3.90;;;3.60;;
4565;SDS011;2295;51.050;14.608;2023-09-12T10:13:53;4.20;;;3.90;;
4565;SDS011;2295;51.050;14.608;2023-09-12T10:16:23;4.27;;;3.87;;
4565;SDS011;2295;51.050;14.608;2023-09-12T10:18:55;5.10;;;3.60;;
4565;SDS011;2295;51.050;14.608;2023-09-12T10:21:30;3.97;;;3.77;;
4565;SDS011;2295;51.050;14.608;2023-09-12T10:23:59;5.60;;;3.93;;
4565;SDS011;2295;51.050;14.608;2023-09-12T10:26:29;3.90;;;3.70;;
4565;SDS011;2295;51.050;14.608;2023-09-12T10:28:59;4.90;;;3.60;;
4565;SDS011;2295;51.050;14.608;2023-09-12T10:31:30;6.30;;;3.30;;
4565;SDS011;2295;51.050;14.608;2023-09-12T10:33:59;4.23;;;3.23;;
4565;SDS011;2295;51.050;14.608;2023-09-12T10:36:32;7.23;;;3.93;;
4565;SDS011;2295;51.050;14.608;2023-09-12T10:39:03;4.30;;;3.47;;
4565;SDS011;2295;51.050;14.608;2023-09-12T10:41:32;3.70;;;3.57;;
4565;SDS011;2295;51.050;14.608;2023-09-12T10:44:05;4.90;;;3.70;;
4565;SDS011;2295;51.050;14.608;2023-09-12T10:46:37;3.93;;;3.63;;
4565;SDS011;2295;51.050;14.608;2023-09-12T10:49:07;4.13;;;3.77;;
4565;SDS011;2295;51.050;14.608;2023-09-12T10:51:41;6.00;;;3.97;;
4565;SDS011;2295;51.050;14.608;2023-09-12T10:54:12;4.33;;;3.93;;
4565;SDS011;2295;51.050;14.608;2023-09-12T10:56:43;4.40;;;4.07;;
4565;SDS011;2295;51.050;14.608;2023-09-12T10:59:17;4.30;;;3.73;;
4565;SDS011;2295;51.050;14.608;2023-09-12T11:01:47;3.90;;;3.70;;
4565;SDS011;2295;51.050;14.608;2023-09-12T11:10:16;12.63;;;3.93;;
4565;SDS011;2295;51.050;14.608;2023-09-12T11:12:49;5.83;;;3.50;;
4565;SDS011;2295;51.050;14.608;2023-09-12T11:15:19;4.33;;;3.93;;
4565;SDS011;2295;51.050;14.608;2023-09-12T11:17:48;5.43;;;3.70;;
4565;SDS011;2295;51.050;14.608;2023-09-12T11:20:17;8.10;;;4.10;;
4565;SDS011;2295;51.050;14.608;2023-09-12T11:22:51;6.17;;;4.33;;
4565;SDS011;2295;51.050;14.608;2023-09-12T11:25:21;5.53;;;3.60;;
4565;SDS011;2295;51.050;14.608;2023-09-12T11:28:04;3.67;;;3.37;;
4565;SDS011;2295;51.050;14.608;2023-09-12T11:30:33;4.70;;;3.33;;
4565;SDS011;2295;51.050;14.608;2023-09-12T11:33:03;5.73;;;3.40;;
4565;SDS011;2295;51.050;14.608;2023-09-12T11:35:35;5.67;;;3.63;;
4565;SDS011;2295;51.050;14.608;2023-09-12T11:38:09;3.47;;;3.17;;
4565;SDS011;2295;51.050;14.608;2023-09-12T11:40:42;7.50;;;3.50;;
4565;SDS011;2295;51.050;14.608;2023-09-12T11:43:22;5.70;;;3.43;;
4565;SDS011;2295;51.050;14.608;2023-09-12T11:45:51;4.67;;;4.00;;
4565;SDS011;2295;51.050;14.608;2023-09-12T11:48:21;6.80;;;3.60;;
4565;SDS011;2295;51.050;14.608;2023-09-12T11:50:51;3.47;;;3.17;;
4565;SDS011;2295;51.050;14.608;2023-09-12T11:53:22;3.93;;;3.37;;
4565;SDS011;2295;51.050;14.608;2023-09-12T11:55:53;3.83;;;3.53;;
4565;SDS011;2295;51.050;14.608;2023-09-12T11:58:25;9.77;;;4.00;;
4565;SDS011;2295;51.050;14.608;2023-09-12T12:00:55;4.17;;;3.97;;
4565;SDS011;2295;51.050;14.608;2023-09-12T12:03:25;8.10;;;3.80;;
4565;SDS011;2295;51.050;14.608;2023-09-12T12:05:55;6.50;;;4.37;;
4565;SDS011;2295;51.050;14.608;2023-09-12T12:08:26;5.27;;;4.30;;
4565;SDS011;2295;51.050;14.608;2023-09-12T12:10:58;7.70;;;3.37;;
4565;SDS011;2295;51.050;14.608;2023-09-12T12:13:27;3.77;;;3.53;;
4565;SDS011;2295;51.050;14.608;2023-09-12T12:15:56;5.03;;;4.07;;
4565;SDS011;2295;51.050;14.608;2023-09-12T12:18:25;4.97;;;3.70;;
4565;SDS011;2295;51.050;14.608;2023-09-12T12:20:53;4.97;;;3.70;;
4565;SDS011;2295;51.050;14.608;2023-09-12T12:23:22;5.50;;;3.80;;
4565;SDS011;2295;51.050;14.608;2023-09-12T12:25:52;6.03;;;3.80;;
4565;SDS011;2295;51.050;14.608;2023-09-12T12:28:20;9.87;;;4.20;;
4565;SDS011;2295;51.050;14.608;2023-09-12T12:30:50;9.73;;;4.33;;
4565;SDS011;2295;51.050;14.608;2023-09-12T12:33:21;6.80;;;4.50;;
4565;SDS011;2295;51.050;14.608;2023-09-12T12:36:10;6.67;;;4.70;;
4565;SDS011;2295;51.050;14.608;2023-09-12T12:38:39;4.30;;;3.87;;
4565;SDS011;2295;51.050;14.608;2023-09-12T12:41:31;7.60;;;4.13;;
4565;SDS011;2295;51.050;14.608;2023-09-12T12:44:14;7.40;;;4.10;;
4565;SDS011;2295;51.050;14.608;2023-09-12T12:46:49;6.77;;;4.73;;
4565;SDS011;2295;51.050;14.608;2023-09-12T12:49:18;5.00;;;4.00;;
4565;SDS011;2295;51.050;14.608;2023-09-12T12:51:48;6.30;;;4.50;;
4565;SDS011;2295;51.050;14.608;2023-09-12T12:54:16;4.40;;;3.93;;
4565;SDS011;2295;51.050;14.608;2023-09-12T12:56:50;5.13;;;3.60;;
4565;SDS011;2295;51.050;14.608;2023-09-12T12:59:26;4.73;;;3.83;;
4565;SDS011;2295;51.050;14.608;2023-09-12T13:01:56;3.90;;;3.63;;
4565;SDS011;2295;51.050;14.608;2023-09-12T13:04:24;4.27;;;3.57;;
4565;SDS011;2295;51.050;14.608;2023-09-12T13:06:52;4.20;;;4.00;;
4565;SDS011;2295;51.050;14.608;2023-09-12T13:09:21;6.10;;;4.00;;
4565;SDS011;2295;51.050;14.608;2023-09-12T13:11:51;15.13;;;4.10;;
4565;SDS011;2295;51.050;14.608;2023-09-12T13:14:19;7.40;;;4.20;;
4565;SDS011;2295;51.050;14.608;2023-09-12T13:16:51;6.50;;;3.40;;
4565;SDS011;2295;51.050;14.608;2023-09-12T13:19:20;7.50;;;4.47;;
4565;SDS011;2295;51.050;14.608;2023-09-12T13:21:48;8.10;;;4.73;;
4565;SDS011;2295;51.050;14.608;2023-09-12T13:24:17;8.00;;;4.67;;
4565;SDS011;2295;51.050;14.608;2023-09-12T13:26:45;6.03;;;4.20;;
4565;SDS011;2295;51.050;14.608;2023-09-12T13:29:15;5.57;;;4.90;;
4565;SDS011;2295;51.050;14.608;2023-09-12T13:31:44;11.20;;;5.30;;
4565;SDS011;2295;51.050;14.608;2023-09-12T13:34:12;18.37;;;5.10;;
4565;SDS011;2295;51.050;14.608;2023-09-12T13:36:40;6.97;;;4.50;;
4565;SDS011;2295;51.050;14.608;2023-09-12T13:39:10;5.80;;;4.37;;
4565;SDS011;2295;51.050;14.608;2023-09-12T13:41:39;7.03;;;4.53;;
4565;SDS011;2295;51.050;14.608;2023-09-12T13:44:07;6.50;;;4.87;;
4565;SDS011;2295;51.050;14.608;2023-09-12T13:46:38;6.37;;;4.90;;
4565;SDS011;2295;51.050;14.608;2023-09-12T13:49:06;18.43;;;5.17;;
4565;SDS011;2295;51.050;14.608;2023-09-12T13:51:35;7.80;;;5.37;;
4565;SDS011;2295;51.050;14.608;2023-09-12T13:54:03;9.23;;;5.50;;
4565;SDS011;2295;51.050;14.608;2023-09-12T13:56:33;11.63;;;5.50;;
4565;SDS011;2295;51.050;14.608;2023-09-12T13:59:02;8.30;;;5.40;;
4565;SDS011;2295;51.050;14.608;2023-09-12T14:01:32;11.20;;;5.60;;
4565;SDS011;2295;51.050;14.608;2023-09-12T14:04:02;9.97;;;5.50;;
4565;SDS011;2295;51.050;14.608;2023-09-12T14:06:32;10.60;;;5.40;;
4565;SDS011;2295;51.050;14.608;2023-09-12T14:09:02;8.00;;;6.00;;
4565;SDS011;2295;51.050;14.608;2023-09-12T14:11:31;12.70;;;5.70;;
4565;SDS011;2295;51.050;14.608;2023-09-12T14:14:02;10.57;;;6.47;;
4565;SDS011;2295;51.050;14.608;2023-09-12T14:16:34;13.00;;;5.60;;
4565;SDS011;2295;51.050;14.608;2023-09-12T14:19:04;7.23;;;5.07;;
4565;SDS011;2295;51.050;14.608;2023-09-12T14:21:34;8.53;;;5.50;;
4565;SDS011;2295;51.050;14.608;2023-09-12T14:24:04;13.23;;;5.40;;
4565;SDS011;2295;51.050;14.608;2023-09-12T14:26:35;7.97;;;5.47;;
4565;SDS011;2295;51.050;14.608;2023-09-12T14:29:04;8.90;;;5.33;;
4565;SDS011;2295;51.050;14.608;2023-09-12T14:31:34;10.40;;;6.03;;
4565;SDS011;2295;51.050;14.608;2023-09-12T14:34:05;7.07;;;5.23;;
4565;SDS011;2295;51.050;14.608;2023-09-12T14:36:35;13.10;;;5.43;;
4565;SDS011;2295;51.050;14.608;2023-09-12T14:39:05;12.77;;;5.50;;
4565;SDS011;2295;51.050;14.608;2023-09-12T14:41:33;11.10;;;5.33;;
4565;SDS011;2295;51.050;14.608;2023-09-12T14:44:02;11.97;;;6.00;;
4565;SDS011;2295;51.050;14.608;2023-09-12T14:46:31;10.60;;;6.13;;
4565;SDS011;2295;51.050;14.608;2023-09-12T14:49:00;10.30;;;5.73;;
4565;SDS011;2295;51.050;14.608;2023-09-12T14:51:30;12.70;;;5.57;;
4565;SDS011;2295;51.050;14.608;2023-09-12T14:54:00;9.83;;;7.27;;
4565;SDS011;2295;51.050;14.608;2023-09-12T14:56:30;7.53;;;5.70;;
4565;SDS011;2295;51.050;14.608;2023-09-12T14:58:58;13.37;;;5.53;;
4565;SDS011;2295;51.050;14.608;2023-09-12T15:01:27;7.77;;;5.50;;
4565;SDS011;2295;51.050;14.608;2023-09-12T15:03:56;6.43;;;5.73;;
4565;SDS011;2295;51.050;14.608;2023-09-12T15:06:24;10.73;;;5.97;;
4565;SDS011;2295;51.050;14.608;2023-09-12T15:08:54;6.90;;;6.07;;
4565;SDS011;2295;51.050;14.608;2023-09-12T15:11:22;9.30;;;6.00;;